createdAt,value
2023-01-07T00:01:44.965Z,35.92
2023-01-07T00:04:47.596Z,47.53
2023-01-07T00:07:49.386Z,104.47
2023-01-07T00:10:51.153Z,115.32
2023-01-07T00:13:56.001Z,92.55
2023-01-07T00:16:57.779Z,137.15
2023-01-07T00:19:59.863Z,146.52
2023-01-07T00:23:02.174Z,83.38
2023-01-07T00:26:06.430Z,70.35
2023-01-07T00:29:10.061Z,16.08
2023-01-07T00:32:11.926Z,47.40
2023-01-07T00:35:23.645Z,34.95
2023-01-07T00:38:26.428Z,6.60
2023-01-07T00:41:28.694Z,35.45
2023-01-07T00:47:33.988Z,26.88
2023-01-07T00:50:37.349Z,35.63
2023-01-07T00:53:39.341Z,21.88
2023-01-07T00:56:41.421Z,18.45
2023-01-07T01:02:47.441Z,6.65
2023-01-07T01:05:49.395Z,18.15
2023-01-07T01:08:51.259Z,6.15
2023-01-07T01:11:53.152Z,27.83
2023-01-07T01:14:56.253Z,12.65
2023-01-07T01:17:58.403Z,25.42
2023-01-07T01:21:03.821Z,31.55
2023-01-07T01:24:06.319Z,16.08
2023-01-07T01:27:10.863Z,29.25
2023-01-07T01:30:14.251Z,20.75
2023-01-07T01:33:16.310Z,42.58
2023-01-07T01:39:20.598Z,54.85
2023-01-07T01:42:25.044Z,7.78
2023-01-07T01:45:29.942Z,12.95
2023-01-07T01:48:35.407Z,17.17
2023-01-07T01:51:40.411Z,30.63
2023-01-07T01:54:48.060Z,25.40
2023-01-07T01:57:55.836Z,5.43
2023-01-07T02:00:59.763Z,4.57
2023-01-07T02:04:04.419Z,7.70
2023-01-07T02:07:10.239Z,3.90
2023-01-07T02:10:18.533Z,7.25
2023-01-07T02:13:37.634Z,4.03
2023-01-07T02:16:48.903Z,3.60
2023-01-07T02:20:15.400Z,2.90
2023-01-07T02:23:53.148Z,2.50
2023-01-07T02:27:21.902Z,2.70
2023-01-07T02:30:54.395Z,2.58
2023-01-07T02:34:02.406Z,2.55
2023-01-07T02:37:12.851Z,2.83
2023-01-07T02:40:22.439Z,2.70
2023-01-07T02:43:33.853Z,2.20
2023-01-07T02:46:43.955Z,2.67
2023-01-07T02:49:48.301Z,2.90
2023-01-07T02:52:51.141Z,2.40
2023-01-07T02:56:07.428Z,2.53
2023-01-07T02:59:30.741Z,2.63
2023-01-07T03:02:49.192Z,2.17
2023-01-07T03:06:04.819Z,2.90
2023-01-07T03:09:14.494Z,2.22
2023-01-07T03:12:22.722Z,2.53
2023-01-07T03:15:29.478Z,2.85
2023-01-07T03:18:35.908Z,2.42
2023-01-07T03:21:39.665Z,2.28
2023-01-07T03:24:43.355Z,2.28
2023-01-07T03:27:48.381Z,2.95
2023-01-07T03:30:52.969Z,1.95
2023-01-07T03:34:00.451Z,2.17
2023-01-07T03:37:10.384Z,1.63
2023-01-07T03:40:12.744Z,2.42
2023-01-07T03:43:18.133Z,1.50
2023-01-07T03:46:20.066Z,1.90
2023-01-07T03:49:22.869Z,1.40
2023-01-07T03:55:28.691Z,2.35
2023-01-07T03:58:31.910Z,1.40
2023-01-07T04:01:33.994Z,1.60
2023-01-07T04:04:36.918Z,1.58
2023-01-07T04:07:40.386Z,1.42
2023-01-07T04:10:42.499Z,1.67
2023-01-07T04:13:44.722Z,2.08
2023-01-07T04:16:46.971Z,1.35
2023-01-07T04:19:49.486Z,1.15
2023-01-07T04:22:52.560Z,1.20
2023-01-07T04:25:54.391Z,1.67
2023-01-07T04:28:58.979Z,2.13
2023-01-07T04:32:02.635Z,1.25
2023-01-07T04:41:10.863Z,1.35
2023-01-07T04:44:12.865Z,1.00
2023-01-07T04:47:14.796Z,1.20
2023-01-07T04:50:17.087Z,1.05
2023-01-07T04:53:21.050Z,1.25
2023-01-07T04:56:27.346Z,1.15
2023-01-07T04:59:29.443Z,1.27
2023-01-07T05:02:33.255Z,1.15
2023-01-07T05:05:35.289Z,1.17
2023-01-07T05:08:39.264Z,1.27
2023-01-07T05:11:41.117Z,1.25
2023-01-07T05:14:43.241Z,1.55
2023-01-07T05:17:45.201Z,1.60
2023-01-07T05:20:48.399Z,1.67
2023-01-07T05:26:54.610Z,1.50
2023-01-07T05:29:57.384Z,1.52
2023-01-07T05:32:59.573Z,1.73
2023-01-07T05:36:01.539Z,1.50
2023-01-07T05:39:04.825Z,2.05
2023-01-07T05:42:07.940Z,2.25
2023-01-07T05:48:12.379Z,2.00
2023-01-07T05:51:14.250Z,2.13
2023-01-07T05:54:17.653Z,2.28
2023-01-07T05:57:19.679Z,2.33
2023-01-07T06:00:21.529Z,2.95
2023-01-07T06:03:23.387Z,3.55
2023-01-07T06:06:25.355Z,2.97
2023-01-07T06:09:30.005Z,3.28
2023-01-07T06:12:31.816Z,2.88
2023-01-07T06:15:33.683Z,4.15
2023-01-07T06:18:36.127Z,3.47
2023-01-07T06:21:38.023Z,3.78
2023-01-07T06:24:41.413Z,3.33
2023-01-07T06:27:43.217Z,4.60
2023-01-07T06:30:45.125Z,4.22
2023-01-07T06:33:47.120Z,4.15
2023-01-07T06:36:48.898Z,4.82
2023-01-07T06:39:52.252Z,5.15
2023-01-07T06:42:54.347Z,4.35
2023-01-07T06:45:56.332Z,6.20
2023-01-07T06:48:58.387Z,5.88
2023-01-07T06:52:00.143Z,4.35
2023-01-07T06:55:03.520Z,5.97
2023-01-07T06:58:05.508Z,5.68
2023-01-07T07:01:08.867Z,6.10
2023-01-07T07:04:10.618Z,6.90
2023-01-07T07:07:12.874Z,4.95
2023-01-07T07:13:18.087Z,5.65
2023-01-07T07:16:22.615Z,6.57
2023-01-07T07:19:24.631Z,5.78
2023-01-07T07:22:26.513Z,6.25
2023-01-07T07:25:29.797Z,5.35
2023-01-07T07:28:31.557Z,6.07
2023-01-07T07:31:33.317Z,6.00
2023-01-07T07:34:36.028Z,6.65
2023-01-07T07:37:38.034Z,7.55
2023-01-07T07:40:41.317Z,8.15
2023-01-07T07:43:43.233Z,8.57
2023-01-07T07:46:45.857Z,7.47
2023-01-07T07:49:48.107Z,6.97
2023-01-07T07:55:53.515Z,5.22
2023-01-07T07:58:55.349Z,4.65
2023-01-07T08:01:57.320Z,4.93
2023-01-07T08:04:59.143Z,5.00
2023-01-07T08:08:00.995Z,6.55
2023-01-07T08:11:04.741Z,4.78
2023-01-07T08:14:06.856Z,4.43
2023-01-07T08:17:08.927Z,5.05
2023-01-07T08:20:11.967Z,5.57
2023-01-07T08:23:13.878Z,4.80
2023-01-07T08:26:17.085Z,3.80
2023-01-07T08:29:18.851Z,4.95
2023-01-07T08:32:21.464Z,4.38
2023-01-07T08:35:23.901Z,4.05
2023-01-07T08:38:27.479Z,4.90
2023-01-07T08:41:30.888Z,4.30
2023-01-07T08:44:34.679Z,5.45
2023-01-07T08:47:36.544Z,6.28
2023-01-07T08:50:38.419Z,3.38
2023-01-07T08:53:40.244Z,4.38
2023-01-07T08:56:43.679Z,5.20
2023-01-07T08:59:45.566Z,4.13
2023-01-07T09:02:47.496Z,4.50
2023-01-07T09:05:49.339Z,3.63
2023-01-07T09:08:51.520Z,3.83
2023-01-07T09:15:00.339Z,3.00
2023-01-07T09:18:05.091Z,4.28
2023-01-07T09:21:07.830Z,6.38
2023-01-07T09:24:09.917Z,4.45
2023-01-07T09:27:13.300Z,6.45
2023-01-07T09:30:15.294Z,3.88
2023-01-07T09:33:17.099Z,4.13
2023-01-07T09:36:19.058Z,6.72
2023-01-07T09:39:20.984Z,2.78
2023-01-07T09:42:34.444Z,3.75
2023-01-07T09:45:40.812Z,3.33
2023-01-07T09:48:46.267Z,4.03
2023-01-07T09:51:52.822Z,2.50
2023-01-07T09:55:03.536Z,3.97
2023-01-07T09:58:14.187Z,2.63
2023-01-07T10:01:25.702Z,4.32
2023-01-07T10:04:38.168Z,9.57
2023-01-07T10:10:52.086Z,2.45
2023-01-07T10:14:10.053Z,8.05
2023-01-07T10:17:23.078Z,9.48
2023-01-07T10:20:35.002Z,42.25
2023-01-07T10:23:39.686Z,13.60
2023-01-07T10:26:46.300Z,25.75
2023-01-07T10:29:55.304Z,32.97
2023-01-07T10:33:04.249Z,5.68
2023-01-07T10:36:17.532Z,1.95
2023-01-07T10:39:26.954Z,3.05
2023-01-07T10:42:35.435Z,9.80
2023-01-07T10:45:48.501Z,18.00
2023-01-07T10:49:07.564Z,7.22
2023-01-07T10:52:15.942Z,13.65
2023-01-07T10:55:34.545Z,20.23
2023-01-07T10:58:40.284Z,4.88
2023-01-07T11:01:48.607Z,9.10
2023-01-07T11:04:50.585Z,3.33
2023-01-07T11:07:56.357Z,1.40
2023-01-07T11:10:58.933Z,4.45
2023-01-07T11:14:04.483Z,1.65
2023-01-07T11:17:15.678Z,2.88
2023-01-07T11:20:41.815Z,2.78
2023-01-07T11:23:44.314Z,1.25
2023-01-07T11:26:49.183Z,1.05
2023-01-07T11:29:57.310Z,1.20
2023-01-07T11:33:04.605Z,1.23
2023-01-07T11:36:07.701Z,1.20
2023-01-07T11:39:11.186Z,1.38
2023-01-07T11:42:45.985Z,1.20
2023-01-07T11:46:21.286Z,1.02
2023-01-07T11:49:23.163Z,1.00
2023-01-07T11:52:24.998Z,1.30
2023-01-07T11:55:27.877Z,1.20
2023-01-07T11:58:31.969Z,1.33
2023-01-07T12:01:42.136Z,1.33
2023-01-07T12:04:45.397Z,1.48
2023-01-07T12:07:48.516Z,1.00
2023-01-07T12:10:55.785Z,1.17
2023-01-07T12:14:08.418Z,1.60
2023-01-07T12:17:16.144Z,2.40
2023-01-07T12:20:51.191Z,2.38
2023-01-07T12:24:07.973Z,1.83
2023-01-07T12:27:22.186Z,1.42
2023-01-07T12:30:51.630Z,1.50
2023-01-07T12:34:08.922Z,1.88
2023-01-07T12:37:20.017Z,1.60
2023-01-07T12:40:30.562Z,2.90
2023-01-07T12:43:35.855Z,8.45
2023-01-07T12:46:43.073Z,3.63
2023-01-07T12:49:51.742Z,3.78
2023-01-07T12:53:00.105Z,9.15
2023-01-07T12:56:11.964Z,6.78
2023-01-07T12:59:46.395Z,4.93
2023-01-07T13:02:51.490Z,8.52
2023-01-07T13:05:56.641Z,7.25
2023-01-07T13:09:07.595Z,9.00
2023-01-07T13:12:41.106Z,3.33
2023-01-07T13:15:44.843Z,3.95
2023-01-07T13:18:50.762Z,4.57
2023-01-07T13:21:52.859Z,1.70
2023-01-07T13:25:12.488Z,5.13
2023-01-07T13:28:50.370Z,3.90
2023-01-07T13:32:13.217Z,4.85
2023-01-07T13:35:44.149Z,2.83
2023-01-07T13:39:10.357Z,2.67
2023-01-07T13:42:22.919Z,1.63
2023-01-07T13:45:28.354Z,5.95
2023-01-07T13:48:33.121Z,1.95
2023-01-07T13:51:38.430Z,1.33
2023-01-07T13:54:56.972Z,1.75
2023-01-07T13:58:00.751Z,3.45
2023-01-07T14:01:05.632Z,1.67
2023-01-07T14:04:34.977Z,1.67
2023-01-07T14:07:46.335Z,1.35
2023-01-07T14:10:53.355Z,5.10
2023-01-07T14:14:06.466Z,0.82
2023-01-07T14:17:18.686Z,0.70
2023-01-07T14:20:32.529Z,0.95
2023-01-07T14:23:44.036Z,1.23
2023-01-07T14:26:56.680Z,1.50
2023-01-07T14:30:16.922Z,1.17
2023-01-07T14:33:24.949Z,2.50
2023-01-07T14:37:11.516Z,1.60
2023-01-07T14:40:58.956Z,1.00
2023-01-07T14:44:20.278Z,1.42
2023-01-07T14:47:54.605Z,2.25
2023-01-07T14:51:07.937Z,0.90
2023-01-07T14:54:38.481Z,1.48
2023-01-07T14:57:52.997Z,0.88
2023-01-07T15:01:17.182Z,1.10
2023-01-07T15:04:51.751Z,0.80
2023-01-07T15:08:19.808Z,0.82
2023-01-07T15:11:44.754Z,1.00
2023-01-07T15:15:13.655Z,1.75
2023-01-07T15:18:15.965Z,1.10
2023-01-07T15:21:30.878Z,1.63
2023-01-07T15:24:40.518Z,1.02
2023-01-07T15:27:49.970Z,1.08
2023-01-07T15:31:00.656Z,1.10
2023-01-07T15:34:10.689Z,1.23
2023-01-07T15:37:15.325Z,1.38
2023-01-07T15:40:18.897Z,3.70
2023-01-07T15:43:24.816Z,1.13
2023-01-07T15:46:27.561Z,1.40
2023-01-07T15:49:29.850Z,1.63
2023-01-07T15:52:33.166Z,1.42
2023-01-07T15:55:38.703Z,1.35
2023-01-07T15:58:47.486Z,1.10
2023-01-07T16:01:50.827Z,0.90
2023-01-07T16:04:57.991Z,1.10
2023-01-07T16:08:01.861Z,1.40
2023-01-07T16:11:06.219Z,1.08
2023-01-07T16:14:14.221Z,1.10
2023-01-07T16:17:16.606Z,2.35
2023-01-07T16:20:26.255Z,1.10
2023-01-07T16:23:32.667Z,1.38
2023-01-07T16:26:40.088Z,1.58
2023-01-07T16:29:50.056Z,1.20
2023-01-07T16:32:54.715Z,1.13
2023-01-07T16:35:59.191Z,0.82
2023-01-07T16:39:14.064Z,1.10
2023-01-07T16:42:20.024Z,1.92
2023-01-07T16:45:28.650Z,1.15
2023-01-07T16:48:30.620Z,1.20
2023-01-07T16:51:41.417Z,1.10
2023-01-07T16:54:46.009Z,1.90
2023-01-07T16:57:50.342Z,1.20
2023-01-07T17:00:54.233Z,1.58
2023-01-07T17:03:59.611Z,1.40
2023-01-07T17:07:02.905Z,1.20
2023-01-07T17:10:07.633Z,1.42
2023-01-07T17:13:32.861Z,1.42
2023-01-07T17:16:36.965Z,1.75
2023-01-07T17:19:40.694Z,1.65
2023-01-07T17:22:43.296Z,1.75
2023-01-07T17:25:48.637Z,3.85
2023-01-07T17:28:52.751Z,2.30
2023-01-07T17:31:54.636Z,1.85
2023-01-07T17:35:01.177Z,1.58
2023-01-07T17:38:05.870Z,1.63
2023-01-07T17:41:32.800Z,3.80
2023-01-07T17:44:34.753Z,3.20
2023-01-07T17:47:36.537Z,2.25
2023-01-07T17:50:38.330Z,7.43
2023-01-07T17:53:45.741Z,2.38
2023-01-07T17:56:49.306Z,2.90
2023-01-07T17:59:51.914Z,3.28
2023-01-07T18:02:53.615Z,2.22
2023-01-07T18:05:55.574Z,3.97
2023-01-07T18:08:57.628Z,2.80
2023-01-07T18:12:19.317Z,3.03
2023-01-07T18:15:24.261Z,3.42
2023-01-07T18:18:28.536Z,2.42
2023-01-07T18:21:30.331Z,3.00
2023-01-07T18:24:32.256Z,3.08
2023-01-07T18:27:35.444Z,3.47
2023-01-07T18:30:38.972Z,2.85
2023-01-07T18:33:40.961Z,2.28
2023-01-07T18:36:42.912Z,3.30
2023-01-07T18:39:44.728Z,2.58
2023-01-07T18:42:48.281Z,2.42
2023-01-07T18:45:50.168Z,2.95
2023-01-07T18:48:52.394Z,2.67
2023-01-07T18:54:56.284Z,3.03
2023-01-07T18:57:59.626Z,4.10
2023-01-07T19:01:03.868Z,3.80
2023-01-07T19:04:06.780Z,3.25
2023-01-07T19:07:09.555Z,3.47
2023-01-07T19:10:11.567Z,3.97
2023-01-07T19:13:14.663Z,3.15
2023-01-07T19:16:16.598Z,2.55
2023-01-07T19:19:18.561Z,4.53
2023-01-07T19:22:20.457Z,2.55
2023-01-07T19:25:22.218Z,2.88
2023-01-07T19:28:26.272Z,4.30
2023-01-07T19:31:28.209Z,10.00
2023-01-07T19:34:30.336Z,42.67
2023-01-07T19:37:32.256Z,11.25
2023-01-07T19:40:34.168Z,37.95
2023-01-07T19:43:39.108Z,6.32
2023-01-07T19:46:42.755Z,48.42
2023-01-07T19:49:45.558Z,7.65
2023-01-07T19:52:47.521Z,23.65
2023-01-07T19:55:50.620Z,6.97
2023-01-07T19:58:54.123Z,4.68
2023-01-07T20:05:16.340Z,18.50
2023-01-07T20:08:18.410Z,36.55
2023-01-07T20:14:24.162Z,6.65
2023-01-07T20:17:26.206Z,32.80
2023-01-07T20:20:28.061Z,11.40
2023-01-07T20:23:30.125Z,25.23
2023-01-07T20:26:34.184Z,17.27
2023-01-07T20:29:38.763Z,4.22
2023-01-07T20:32:40.863Z,8.50
2023-01-07T20:35:43.378Z,5.38
2023-01-07T20:38:46.881Z,15.10
2023-01-07T20:41:48.861Z,5.55
2023-01-07T20:44:52.473Z,5.72
2023-01-07T20:47:54.540Z,8.52
2023-01-07T20:50:56.801Z,6.75
2023-01-07T20:53:58.614Z,10.77
2023-01-07T20:57:00.372Z,5.13
2023-01-07T21:00:04.838Z,49.08
2023-01-07T21:03:07.083Z,4.65
2023-01-07T21:06:10.743Z,32.40
2023-01-07T21:09:12.643Z,18.33
2023-01-07T21:15:18.234Z,2.92
2023-01-07T21:18:20.857Z,4.40
2023-01-07T21:21:26.241Z,4.10
2023-01-07T21:24:28.237Z,3.50
2023-01-07T21:27:30.044Z,13.15
2023-01-07T21:30:33.658Z,13.65
2023-01-07T21:33:36.899Z,6.60
2023-01-07T21:36:40.406Z,4.53
2023-01-07T21:39:42.251Z,4.40
2023-01-07T21:42:44.349Z,23.23
2023-01-07T21:45:47.971Z,5.78
2023-01-07T21:48:50.324Z,50.88
2023-01-07T21:51:52.191Z,6.20
2023-01-07T21:54:56.430Z,6.38
2023-01-07T21:57:58.439Z,6.88
2023-01-07T22:01:01.802Z,6.55
2023-01-07T22:04:04.164Z,5.35
2023-01-07T22:07:06.216Z,3.78
2023-01-07T22:10:09.820Z,15.40
2023-01-07T22:13:11.575Z,5.25
2023-01-07T22:16:15.051Z,5.13
2023-01-07T22:19:16.917Z,5.03
2023-01-07T22:22:20.948Z,4.95
2023-01-07T22:25:22.846Z,14.93
2023-01-07T22:28:25.165Z,9.50
2023-01-07T22:34:32.265Z,56.63
2023-01-07T22:37:34.912Z,9.43
2023-01-07T22:40:37.901Z,8.38
2023-01-07T22:43:40.133Z,15.20
2023-01-07T22:49:48.458Z,16.67
2023-01-07T22:52:50.284Z,17.77
2023-01-07T22:55:52.420Z,16.10
2023-01-07T23:01:57.846Z,13.60
2023-01-07T23:04:59.896Z,5.18
2023-01-07T23:11:04.087Z,5.80
2023-01-07T23:14:05.867Z,6.32
2023-01-07T23:17:10.553Z,4.85
2023-01-07T23:20:12.502Z,3.95
2023-01-07T23:23:14.395Z,5.55
2023-01-07T23:26:16.353Z,4.63
2023-01-07T23:29:18.772Z,4.07
2023-01-07T23:32:21.927Z,7.78
2023-01-07T23:35:23.818Z,8.02
2023-01-07T23:38:26.315Z,7.13
2023-01-07T23:41:28.192Z,7.43
2023-01-07T23:44:30.447Z,5.65
2023-01-07T23:50:35.453Z,3.22
2023-01-07T23:53:37.455Z,3.55
2023-01-07T23:56:39.460Z,3.80
2023-01-07T23:59:42.179Z,4.18
